ΕΜΥ, Εθνική Μετεωρολογική Υπηρεσία - Δελτία Καιρού, Προγνώσεις

ΑΕΡΟΝΑΥΤΙΛΙΑ

GREEK AIRPORTS CODES

TAF LGAV 111700Z 1118/1218 VRB05KT 9999 SCT020 SCT070 BECMG 1121/1123 BKN070 TEMPO 1121/1203 BKN020 BECMG 1202/1204 13015KT=

EUROPEAN AIRPORTS CODES